Latest Weather Observations for Moorabbin Airport

IDV60901

Issued at 6:21 am EDT Saturday 10 December 2016 (issued every 10 minutes, with the page automatically refreshed every 10 minutes)

About weather observations | Map of Melbourne area stations | Latest observations for Melbourne area | Other Formats
Station Details ID: 086077 Name: MOORABBIN AIRPORT Lat: -37.98 Lon: 145.10 Height: 12.1 m
Data from the previous 72 hours. | See also: Recent months at Moorabbin Airport
Date/Time
EDT
Temp
°C
App
Temp
°C
Dew
Point
°C
Rel
Hum
%
Delta-T
°C
Wind Press
QNH
hPa
Press
MSL
hPa
Rain since
9am
mm
Dir  Spd
km/h
Gust
km/h
Spd
kts
Gust
kts
10/06:00am 12.7 10.0 7.4 70 2.6 WSW 11 15 6 8 1022.1 1022.1 0.2
10/05:30am 12.5 10.2 7.6 72 2.4 W 9 13 5 7 1021.8 1021.8 0.2
10/05:00am 12.4 9.8 7.9 74 2.2 WSW 11 15 6 8 1021.8 1021.8 0.2
10/04:30am 12.3 8.6 8.0 75 2.1 SW 17 26 9 14 1021.7 1021.7 0.2
10/04:00am 12.5 9.1 7.8 73 2.3 SW 15 20 8 11 1021.5 1021.5 0.2
10/03:30am 12.8 10.2 7.7 71 2.5 WSW 11 17 6 9 1021.5 1021.5 0.2
10/03:00am 12.5 9.5 7.8 73 2.3 SSW 13 20 7 11 1021.5 1021.5 0.2
10/02:30am 12.6 8.5 7.9 73 2.3 WSW 19 24 10 13 1021.6 1021.6 0.2
10/02:00am 13.2 9.9 7.9 70 2.6 WSW 15 22 8 12 1021.7 1021.7 0.2
10/01:30am 13.2 9.8 7.6 69 2.7 SSW 15 20 8 11 1021.9 1021.9 0.2
10/01:00am 13.1 9.3 7.5 69 2.7 SSW 17 22 9 12 1022.1 1022.1 0.2
10/12:30am 13.2 8.9 7.0 66 3.0 SW 19 28 10 15 1022.3 1022.3 0.2
10/12:00am 13.6 9.2 6.7 63 3.3 SSW 19 24 10 13 1022.3 1022.3 0.2
 
Date/Time
EDT
Temp
°C
App
Temp
°C
Dew
Point
°C
Rel
Hum
%
Delta-T
°C
Wind Press
QNH
hPa
Press
MSL
hPa
Rain since
9am
mm
Dir  Spd
km/h
Gust
km/h
Spd
kts
Gust
kts
09/11:30pm 13.8 9.0 5.4 57 3.9 SSW 20 28 11 15 1022.4 1022.4 0.2
09/11:00pm 13.7 9.2 7.0 64 3.2 SSW 20 28 11 15 1022.3 1022.3 0.2
09/10:30pm 13.8 9.4 7.6 66 3.0 SSW 20 30 11 16 1022.2 1022.2 0.2
09/10:00pm 13.6 9.9 7.8 68 2.8 SSW 17 30 9 16 1022.1 1022.1 0.2
09/09:30pm 13.5 8.3 7.1 65 3.1 SSW 24 33 13 18 1021.8 1021.8 0.2
09/09:00pm 13.3 8.3 8.2 71 2.5 SSW 24 35 13 19 1021.7 1021.7 0.2
09/08:30pm 13.7 8.6 7.7 67 3.0 SSW 24 33 13 18 1021.3 1021.3 0.2
09/08:00pm 13.9 8.8 7.7 66 3.0 SSW 24 41 13 22 1021.1 1021.1 0.2
09/07:30pm 13.9 7.9 7.0 63 3.4 SSW 28 39 15 21 1020.8 1020.8 0.2
09/07:00pm 14.6 8.7 7.6 63 3.5 SSW 28 41 15 22 1020.4 1020.4 0.2
09/06:30pm 14.9 9.0 7.7 62 3.6 SSW 28 41 15 22 1019.8 1019.8 0.2
09/06:00pm 15.5 9.3 6.2 54 4.5 SSW 28 41 15 22 1019.6 1019.6 0.2
09/05:30pm 14.6 8.1 6.7 59 3.8 SSW 30 41 16 22 1019.6 1019.6 0.2
09/05:00pm 15.7 9.3 7.0 56 4.3 SSW 30 43 16 23 1019.3 1019.3 0.2
09/04:30pm 15.3 8.5 7.1 58 4.0 SSW 32 46 17 25 1019.3 1019.3 0.2
09/04:00pm 15.8 9.3 8.1 60 3.9 SSW 32 44 17 24 1019.3 1019.3 0.2
09/03:30pm 16.0 9.7 5.6 50 5.0 SSW 28 41 15 22 1019.1 1019.1 0.2
09/03:00pm 16.0 10.4 7.2 56 4.3 SW 26 39 14 21 1019.1 1019.1 0.2
09/02:30pm 15.1 8.9 7.9 62 3.6 SSW 30 41 16 22 1019.1 1019.1 0.2
09/02:00pm 15.4 9.2 6.2 54 4.4 SW 28 39 15 21 1018.9 1018.9 0.2
09/01:30pm 14.4 7.8 6.0 57 4.0 SW 30 43 16 23 1018.8 1018.8 0.2
09/01:10pm 14.6 8.0 7.6 63 3.5 SW 32 52 17 28 1018.7 1018.7 0.2
09/01:00pm 15.7 10.1 7.2 57 4.2 SW 26 35 14 19 1018.6 1018.6 0.2
09/12:30pm 15.2 8.5 5.4 52 4.7 SW 30 41 16 22 1018.3 1018.3 0.2
09/12:00pm 14.5 8.2 5.8 56 4.1 SSW 28 39 15 21 1018.0 1018.0 0.2
09/11:30am 15.3 8.4 6.6 56 4.2 SW 32 43 17 23 1017.5 1017.5 0.2
09/11:00am 14.0 7.2 5.1 55 4.2 SW 30 43 16 23 1017.1 1017.1 0.2
09/10:39am 12.1 6.1 7.0 71 2.4 SW 28 50 15 27 1016.9 1016.9 0.0
09/10:30am 12.4 8.2 8.1 75 2.1 SW 20 41 11 22 1016.6 1016.6 0.0
09/10:19am 12.3 6.3 7.0 70 2.5 WSW 28 50 15 27 1016.5 1016.5 0.0
09/10:00am 14.2 6.6 5.8 57 4.0 SW 35 50 19 27 1016.3 1016.3 0.0
09/09:52am 14.3 7.4 6.4 59 3.8 SW 32 50 17 27 1016.1 1016.1 0.0
09/09:30am 13.1 7.1 7.1 67 2.9 WSW 28 41 15 22 1015.8 1015.8 0.0
09/09:00am 12.6 7.5 7.5 71 2.5 WSW 24 33 13 18 1015.4 1015.4 9.8
09/08:30am 12.9 8.4 7.1 68 2.8 WSW 20 32 11 17 1014.6 1014.6 9.8
09/08:00am 12.1 6.9 7.2 72 2.4 WSW 24 33 13 18 1014.2 1014.2 9.8
09/07:30am 12.1 7.1 6.6 69 2.6 SW 22 35 12 19 1013.5 1013.5 9.8
09/07:00am 11.6 6.0 7.1 74 2.2 WSW 26 41 14 22 1013.0 1013.0 9.8
09/06:30am 11.1 6.7 7.4 78 1.8 WSW 20 30 11 16 1012.3 1012.3 9.6
09/06:00am 10.9 5.6 6.8 76 1.9 WSW 24 44 13 24 1011.6 1011.6 9.4
09/05:30am 10.5 3.7 6.8 78 1.7 WSW 32 54 17 29 1011.1 1011.1 9.2
09/05:22am 11.2 5.2 6.9 75 2.0 WSW 28 54 15 29 1011.0 1011.0 9.0
09/05:00am 11.6 5.9 6.5 71 2.4 WSW 26 43 14 23 1010.6 1010.6 8.8
09/04:37am 11.4 5.2 6.3 71 2.4 WSW 28 46 15 25 1010.4 1010.4 8.6
09/04:30am 11.4 6.0 6.5 72 2.3 WSW 24 41 13 22 1010.3 1010.3 8.6
09/04:06am 11.6 5.4 6.3 70 2.5 WSW 28 50 15 27 1009.9 1009.9 8.4
09/04:00am 11.4 5.6 6.1 70 2.5 W 26 43 14 23 1009.8 1009.8 8.4
09/03:30am 11.3 5.0 5.6 68 2.6 WSW 28 39 15 21 1009.3 1009.3 8.4
09/03:08am 10.8 4.7 6.6 75 2.0 WSW 28 46 15 25 1009.1 1009.1 8.4
09/03:00am 11.0 4.1 6.4 73 2.2 WSW 32 46 17 25 1009.4 1009.4 8.2
09/02:34am 12.9 6.6 5.8 62 3.3 WSW 28 46 15 25 1008.9 1008.9 7.8
09/02:30am 12.8 6.9 5.7 62 3.3 WSW 26 43 14 23 1008.7 1008.7 7.8
09/02:00am 12.9 6.7 6.3 64 3.1 WSW 28 43 15 23 1008.8 1008.8 7.8
09/01:30am 13.2 6.7 6.3 63 3.3 WSW 30 44 16 24 1008.6 1008.6 7.8
09/01:17am 13.4 7.3 6.7 64 3.2 WSW 28 48 15 26 1008.5 1008.5 7.8
09/01:00am 13.1 7.7 6.5 64 3.2 WSW 24 37 13 20 1008.4 1008.4 7.8
09/12:30am 13.4 7.9 7.6 68 2.8 WSW 26 39 14 21 1008.4 1008.4 7.8
09/12:00am 13.4 7.4 7.2 66 3.0 WSW 28 39 15 21 1008.3 1008.3 7.8
 
Date/Time
EDT
Temp
°C
App
Temp
°C
Dew
Point
°C
Rel
Hum
%
Delta-T
°C
Wind Press
QNH
hPa
Press
MSL
hPa
Rain since
9am
mm
Dir  Spd
km/h
Gust
km/h
Spd
kts
Gust
kts
08/11:30pm 13.7 8.4 7.0 64 3.3 WSW 24 39 13 21 1007.9 1007.9 7.8
08/11:00pm 13.9 8.8 7.7 66 3.1 WSW 24 39 13 21 1007.5 1007.5 7.8
08/10:30pm 13.6 7.7 10.6 82 1.6 SW 32 48 17 26 1007.1 1007.1 7.8
08/10:29pm 13.6 7.7 10.6 82 1.6 SW 32 48 17 26 1007.1 1007.1 7.8
08/10:12pm 13.0 5.9 9.6 80 1.7 SW 37 56 20 30 1006.7 1006.7 7.8
08/10:00pm 13.3 6.3 9.9 80 1.8 SW 37 56 20 30 1006.2 1006.2 7.2
08/09:41pm 14.4 7.3 9.6 73 2.5 SW 37 57 20 31 1005.7 1005.7 7.2
08/09:30pm 14.2 7.7 10.4 78 2.0 SW 35 52 19 28 1005.6 1005.6 7.2
08/09:04pm 13.9 8.0 10.3 79 1.9 SW 32 50 17 27 1004.9 1004.9 7.2
08/09:00pm 13.9 7.3 9.9 77 2.1 SW 35 50 19 27 1004.9 1004.9 7.2
08/08:30pm 14.4 7.8 10.0 75 2.3 SW 35 56 19 30 1004.1 1004.1 7.0
08/08:25pm 14.3 8.5 10.7 79 1.9 SW 32 56 17 30 1004.0 1004.0 7.0
08/08:21pm 14.2 9.3 11.4 83 1.5 SW 28 48 15 26 1004.0 1004.0 7.0
08/08:06pm 14.1 8.2 10.5 79 1.9 WSW 32 46 17 25 1003.6 1003.6 6.6
08/08:03pm 14.9 9.6 9.7 71 2.7 W 28 46 15 25 1003.6 1003.6 6.0
08/08:00pm 16.2 11.0 10.3 68 3.1 W 28 41 15 22 1003.3 1003.3 5.8
08/07:30pm 17.0 10.9 9.7 62 3.8 W 32 50 17 27 1002.5 1002.5 5.8
08/07:22pm 16.9 11.2 9.8 63 3.7 W 30 50 16 27 1002.3 1002.3 5.8
08/07:00pm 16.8 11.3 10.6 67 3.3 W 30 44 16 24 1001.9 1001.9 5.8
08/06:35pm 17.2 11.1 9.6 61 4.0 WNW 32 50 17 27 1001.1 1001.1 5.8
08/06:30pm 17.5 12.1 9.4 59 4.2 WNW 28 44 15 24 1001.1 1001.1 5.8
08/06:00pm 18.2 11.8 8.7 54 4.9 W 32 57 17 31 1000.3 1000.3 5.8
08/05:30pm 19.1 11.4 8.7 51 5.4 W 39 61 21 33 999.5 999.5 5.8
08/05:16pm 20.1 13.9 7.8 45 6.3 W 30 54 16 29 999.1 999.1 5.8
08/05:00pm 21.0 15.4 8.6 45 6.6 W 28 44 15 24 999.0 999.0 5.8
08/04:30pm 20.7 13.1 9.0 47 6.2 W 39 59 21 32 998.7 998.7 5.8
08/04:00pm 20.9 12.7 8.2 44 6.7 W 41 59 22 32 998.3 998.3 5.8
08/03:30pm 21.9 15.5 8.4 42 7.1 W 32 57 17 31 998.1 998.1 5.8
08/03:00pm 22.2 15.3 7.2 38 7.8 W 33 57 18 31 997.9 997.9 5.8
08/02:38pm 22.7 16.4 8.8 41 7.4 W 32 54 17 29 997.7 997.7 5.8
08/02:30pm 23.1 16.5 8.4 39 7.8 W 33 46 18 25 997.4 997.4 5.8
08/02:00pm 22.0 15.4 7.8 40 7.5 WNW 32 43 17 23 997.4 997.4 5.8
08/01:33pm 20.8 15.1 9.7 49 6.0 W 30 48 16 26 997.4 997.4 5.8
08/01:30pm 20.6 14.2 8.6 46 6.3 W 32 48 17 26 997.4 997.4 5.8
08/01:06pm 19.1 13.5 10.1 56 4.8 W 30 48 16 26 997.3 997.3 5.8
08/01:00pm 18.9 14.7 11.2 61 4.2 WNW 24 39 13 21 997.4 997.4 5.8
08/12:30pm 16.7 13.2 12.3 75 2.4 W 22 30 12 16 997.5 997.5 5.8
08/12:00pm 15.7 12.8 12.8 83 1.6 W 20 32 11 17 997.6 997.6 5.8
08/11:47am 15.1 11.7 12.6 85 1.4 W 22 32 12 17 997.7 997.7 5.8
08/11:30am 14.2 10.7 12.1 87 1.1 W 22 32 12 17 997.8 997.8 5.4
08/11:01am 14.0 7.7 11.0 82 1.6 WSW 35 54 19 29 997.8 997.8 2.8
08/11:00am 14.0 7.2 10.8 81 1.7 WSW 37 54 20 29 997.8 997.8 2.6
08/10:59am 14.0 7.6 10.8 81 1.7 WSW 35 54 19 29 997.7 997.7 2.6
08/10:51am 16.0 10.7 11.4 74 2.5 WNW 30 46 16 25 997.6 997.6 2.0
08/10:46am 18.8 14.2 15.1 79 2.2 NNW 33 52 18 28 997.1 997.1 2.0
08/10:30am 18.9 13.3 15.4 80 2.1 N 39 52 21 28 995.8 995.8 2.0
08/10:00am 18.5 14.1 15.6 83 1.7 N 33 46 18 25 995.9 995.9 2.0
08/09:30am 17.5 11.6 14.6 83 1.7 N 39 50 21 27 996.0 996.0 1.2
08/09:20am 17.7 11.8 14.6 82 1.8 N 39 52 21 28 996.3 996.3 1.0
08/09:00am 17.5 10.9 13.8 79 2.1 N 41 56 22 30 996.8 996.8 3.2
08/08:57am 17.6 11.0 13.7 78 2.2 N 41 59 22 32 996.7 996.7 2.8
08/08:34am 17.9 11.0 12.8 72 2.9 N 41 59 22 32 997.0 997.0 1.4
08/08:30am 18.2 10.8 12.6 70 3.1 N 43 59 23 32 997.0 997.0 1.4
08/08:24am 18.6 12.8 12.8 69 3.3 N 35 54 19 29 996.9 996.9 1.0
08/08:00am 18.9 13.4 12.6 67 3.5 N 33 50 18 27 997.1 997.1 1.0
08/07:30am 18.4 13.3 11.9 66 3.6 N 30 37 16 20 998.1 998.1 0.8
08/07:00am 20.1 14.2 10.5 54 5.2 NNW 32 44 17 24 998.7 998.7 0.2
08/06:34am 22.2 13.8 9.0 43 7.0 NNW 43 63 23 34 999.0 999.0 0.0
08/06:30am 22.8 14.3 8.5 40 7.6 NNW 43 57 23 31 999.1 999.1 0.0
08/06:06am 25.7 19.4 5.8 28 10.2 NNW 28 54 15 29 998.6 998.6 0.0
08/06:00am 25.7 19.2 4.8 26 10.6 NNW 28 37 15 20 998.5 998.5 0.0
08/05:30am 25.8 17.9 4.3 25 10.8 N 35 50 19 27 997.5 997.5 0.0
08/05:08am 26.2 17.1 4.1 24 11.1 N 41 65 22 35 997.1 997.1 0.0
08/05:00am 25.9 17.6 4.4 25 10.9 N 37 50 20 27 997.1 997.1 0.0
08/04:30am 24.7 16.8 4.5 27 10.1 N 35 46 19 25 997.0 997.0 0.0
08/04:00am 24.6 16.6 3.8 26 10.3 N 35 44 19 24 997.4 997.4 0.0
08/03:30am 24.1 16.5 4.0 27 9.9 N 33 46 18 25 998.4 998.4 0.0
08/03:00am 24.0 17.8 4.4 28 9.8 NNE 26 41 14 22 999.0 999.0 0.0
08/02:30am 23.8 18.0 4.2 28 9.7 NNE 24 33 13 18 999.7 999.7 0.0
08/02:00am 22.7 17.9 4.7 31 8.9 NNE 19 24 10 13 1001.1 1001.1 0.0
08/01:30am 21.4 17.4 4.9 34 8.1 NE 15 17 8 9 1001.9 1001.9 0.0
08/01:00am 22.3 17.5 4.4 31 8.8 NNE 19 26 10 14 1002.7 1002.7 0.0
08/12:30am 22.4 18.0 4.9 32 8.7 NNE 17 24 9 13 1003.4 1003.4 0.0
08/12:00am 21.2 17.7 5.6 36 7.8 NNE 13 17 7 9 1004.3 1004.3 0.0
 
Date/Time
EDT
Temp
°C
App
Temp
°C
Dew
Point
°C
Rel
Hum
%
Delta-T
°C
Wind Press
QNH
hPa
Press
MSL
hPa
Rain since
9am
mm
Dir  Spd
km/h
Gust
km/h
Spd
kts
Gust
kts
07/11:30pm 16.5 15.1 10.8 69 3.0 ENE 9 11 5 6 1004.7 1004.7 0.0
07/11:00pm 17.1 16.2 11.2 68 3.2 ESE 7 9 4 5 1005.2 1005.2 0.0
07/10:30pm 17.8 16.2 11.4 66 3.5 ESE 11 15 6 8 1005.6 1005.6 0.0
07/10:00pm 18.4 17.4 11.0 62 4.0 ESE 7 9 4 5 1006.1 1006.1 0.0
07/09:30pm 19.4 17.7 11.2 59 4.5 ESE 11 15 6 8 1006.6 1006.6 0.0
07/09:00pm 20.1 17.3 11.3 57 4.9 ESE 17 20 9 11 1006.9 1006.9 0.0
07/08:30pm 21.1 18.2 10.9 52 5.6 ESE 17 24 9 13 1007.1 1007.1 0.0
07/08:00pm 22.1 17.8 10.6 48 6.3 SE 24 32 13 17 1007.4 1007.4 0.0
07/07:30pm 23.8 19.0 9.0 39 8.0 SE 24 28 13 15 1007.4 1007.4 0.0
07/07:00pm 24.9 20.5 8.8 36 8.7 SE 22 30 12 16 1007.6 1007.6 0.0
07/06:30pm 25.6 20.8 9.0 35 9.0 SE 24 32 13 17 1007.7 1007.7 0.0
07/06:00pm 26.0 21.7 8.0 32 9.7 SE 20 28 11 15 1008.1 1008.1 0.0
07/05:30pm 27.2 24.4 8.6 31 10.1 S 13 19 7 10 1008.4 1008.4 0.0
07/05:00pm 26.2 22.3 7.3 30 10.0 S 17 20 9 11 1009.1 1009.1 0.0
07/04:30pm 26.5 23.1 10.6 37 8.9 SSW 19 28 10 15 1009.5 1009.5 0.0
07/04:00pm 25.0 21.3 8.1 34 9.0 S 17 24 9 13 1010.2 1010.2 0.0
07/03:30pm 24.0 20.9 10.3 42 7.6 S 17 20 9 11 1011.0 1011.0 0.0
07/03:00pm 22.0 18.5 8.9 43 7.0 S 17 24 9 13 1011.7 1011.7 0.0
07/02:30pm 21.4 17.8 8.3 43 6.9 SSW 17 26 9 14 1012.4 1012.4 0.0
07/02:00pm 21.0 16.8 7.3 41 7.0 SW 19 24 10 13 1012.8 1012.8 0.0
07/01:30pm 21.3 17.8 8.6 44 6.7 SW 17 20 9 11 1013.2 1013.2 0.0
07/01:00pm 21.1 18.2 9.7 48 6.1 SSW 15 20 8 11 1013.7 1013.7 0.0
07/12:30pm 20.0 17.7 9.0 49 5.8 WSW 11 17 6 9 1014.2 1014.2 0.0
07/12:00pm 19.9 17.3 10.6 55 5.0 WSW 15 20 8 11 1014.6 1014.6 0.0
07/11:30am 19.0 15.8 9.8 55 4.9 WSW 17 22 9 12 1014.9 1014.9 0.0
07/11:00am 18.9 16.2 9.1 53 5.1 SW 13 20 7 11 1014.9 1014.9 0.0
07/10:30am 18.3 16.4 6.8 47 5.7 SSW 6 9 3 5 1015.1 1015.1 0.0
07/10:00am 18.2 16.3 6.7 47 5.7 N 6 17 3 9 1015.3 1015.3 0.0
07/09:30am 17.2 15.4 7.3 52 5.0 ENE 6 13 3 7 1015.5 1015.5 0.0
07/09:00am 16.2 14.4 7.9 58 4.2 ENE 7 11 4 6 1015.5 1015.5 0.0
07/08:30am 15.6 14.3 9.1 65 3.3 E 6 9 3 5 1015.7 1015.7 0.0
07/08:00am 14.9 14.8 10.7 76 2.2 NE 2 6 1 3 1015.7 1015.7 0.0
07/07:30am 12.9 11.7 10.4 85 1.3 N 7 9 4 5 1015.6 1015.6 0.0
07/07:00am 11.6 11.7 10.0 90 0.8 CALM 0 0 0 0 1015.6 1015.6 0.0
07/06:30am 10.2 9.9 8.6 90 0.8 CALM 0 0 0 0 1015.5 1015.5 0.0

Latest Capital City Observations: Canberra | Sydney | Melbourne | Brisbane | Adelaide | Perth | Hobart | Darwin

Other Formats:

Comma delimited format used in spreadsheet applications
http://www.bom.gov.au/fwo/IDV60901/IDV60901.94870.axf

JavaScript Object Notation format (JSON) in row-major order
http://www.bom.gov.au/fwo/IDV60901/IDV60901.94870.json